createdAt,value
2023-03-03T00:01:19.526Z,15.73
2023-03-03T00:06:40.459Z,15.60
2023-03-03T00:12:06.296Z,15.90
2023-03-03T00:17:32.843Z,15.10
2023-03-03T00:22:53.867Z,16.48
2023-03-03T00:28:48.208Z,16.08
2023-03-03T00:34:27.714Z,16.45
2023-03-03T00:39:48.886Z,15.02
2023-03-03T00:45:27.523Z,16.02
2023-03-03T00:50:48.985Z,16.75
2023-03-03T00:56:09.775Z,16.67
2023-03-03T01:01:30.675Z,16.88
2023-03-03T01:06:51.215Z,18.02
2023-03-03T01:12:12.357Z,18.13
2023-03-03T01:17:34.416Z,17.35
2023-03-03T01:22:55.024Z,17.83
2023-03-03T01:28:16.203Z,17.45
2023-03-03T01:33:36.976Z,18.17
2023-03-03T01:38:57.763Z,17.67
2023-03-03T01:44:18.476Z,19.65
2023-03-03T01:50:04.448Z,20.27
2023-03-03T01:55:30.905Z,18.45
2023-03-03T02:00:57.747Z,17.25
2023-03-03T02:06:22.771Z,19.13
2023-03-03T02:11:45.751Z,17.27
2023-03-03T02:17:06.722Z,18.42
2023-03-03T02:22:40.228Z,17.95
2023-03-03T02:28:02.304Z,18.30
2023-03-03T02:33:23.491Z,17.92
2023-03-03T02:38:59.299Z,19.45
2023-03-03T02:44:26.618Z,18.63
2023-03-03T02:49:47.377Z,18.80
2023-03-03T02:55:08.719Z,17.45
2023-03-03T03:00:29.729Z,18.60
2023-03-03T03:05:50.260Z,17.23
2023-03-03T03:11:14.411Z,17.88
2023-03-03T03:16:36.165Z,17.27
2023-03-03T03:21:56.910Z,16.90
2023-03-03T03:27:19.371Z,17.20
2023-03-03T03:32:42.500Z,17.00
2023-03-03T03:38:04.198Z,16.58
2023-03-03T03:43:26.849Z,17.60
2023-03-03T03:48:47.907Z,16.63
2023-03-03T03:54:11.716Z,16.80
2023-03-03T03:59:34.031Z,16.08
2023-03-03T04:04:54.618Z,18.63
2023-03-03T04:10:15.403Z,17.15
2023-03-03T04:15:36.126Z,16.75
2023-03-03T04:20:57.652Z,16.25
2023-03-03T04:26:19.728Z,16.50
2023-03-03T04:31:42.335Z,16.60
2023-03-03T04:37:05.768Z,16.25
2023-03-03T04:42:28.295Z,16.58
2023-03-03T04:47:49.230Z,16.65
2023-03-03T04:53:11.016Z,16.48
2023-03-03T04:58:33.214Z,16.98
2023-03-03T05:03:53.769Z,15.40
2023-03-03T05:09:14.480Z,16.35
2023-03-03T05:14:35.189Z,16.85
2023-03-03T05:19:57.349Z,15.98
2023-03-03T05:25:18.230Z,16.33
2023-03-03T05:30:39.242Z,17.38
2023-03-03T05:36:00.348Z,15.65
2023-03-03T05:41:21.061Z,17.48
2023-03-03T05:46:42.767Z,15.85
2023-03-03T05:52:04.175Z,16.73
2023-03-03T05:57:24.910Z,17.15
2023-03-03T06:02:46.206Z,16.30
2023-03-03T06:08:07.233Z,16.23
2023-03-03T06:13:28.076Z,15.60
2023-03-03T06:18:48.996Z,15.00
2023-03-03T06:24:09.876Z,14.93
2023-03-03T06:29:30.836Z,16.95
2023-03-03T06:34:51.531Z,17.30
2023-03-03T06:40:12.757Z,17.83
2023-03-03T06:45:33.521Z,17.65
2023-03-03T06:50:54.122Z,15.75
2023-03-03T06:56:14.876Z,16.25
2023-03-03T07:01:38.456Z,13.40
2023-03-03T07:07:16.888Z,15.38
2023-03-03T07:12:37.960Z,16.02
2023-03-03T07:17:59.745Z,20.13
2023-03-03T07:23:42.599Z,19.40
2023-03-03T07:29:33.377Z,15.90
2023-03-03T07:40:34.895Z,19.13
2023-03-03T07:46:11.221Z,22.08
2023-03-03T07:51:42.102Z,16.48
2023-03-03T07:57:12.288Z,21.50
2023-03-03T08:08:37.031Z,19.55
2023-03-03T08:13:57.758Z,20.92
2023-03-03T08:19:18.896Z,22.27
2023-03-03T08:24:39.393Z,20.00
2023-03-03T08:30:00.127Z,21.55
2023-03-03T08:35:20.926Z,23.10
2023-03-03T08:40:42.586Z,23.02
2023-03-03T08:46:06.171Z,20.15
2023-03-03T08:51:27.431Z,19.23
2023-03-03T08:56:48.451Z,20.42
2023-03-03T09:02:09.376Z,19.63
2023-03-03T09:07:30.609Z,18.30
2023-03-03T09:12:51.837Z,15.63
2023-03-03T09:18:15.735Z,15.85
2023-03-03T09:23:38.745Z,18.35
2023-03-03T09:29:05.108Z,17.23
2023-03-03T09:34:42.729Z,18.73
2023-03-03T09:40:33.212Z,14.35
2023-03-03T09:46:23.539Z,20.75
2023-03-03T09:51:53.364Z,15.93
2023-03-03T09:57:34.270Z,18.25
2023-03-03T10:03:22.694Z,15.63
2023-03-03T10:09:12.007Z,14.63
2023-03-03T10:15:17.397Z,14.80
2023-03-03T10:20:59.624Z,12.52
2023-03-03T10:26:34.837Z,13.30
2023-03-03T10:32:03.138Z,15.20
2023-03-03T10:37:27.731Z,14.63
2023-03-03T10:43:31.883Z,12.57
2023-03-03T10:49:06.246Z,12.52
2023-03-03T10:54:38.671Z,11.88
2023-03-03T11:00:16.767Z,11.68
2023-03-03T11:05:48.278Z,11.98
2023-03-03T11:11:15.322Z,11.13
2023-03-03T11:17:16.284Z,13.57
2023-03-03T11:22:55.086Z,9.23
2023-03-03T11:28:21.988Z,10.05
2023-03-03T11:33:56.475Z,11.10
2023-03-03T11:39:22.243Z,11.82
2023-03-03T11:44:47.937Z,9.57
2023-03-03T11:50:14.218Z,7.55
2023-03-03T11:55:41.416Z,8.68
2023-03-03T12:01:20.059Z,6.70
2023-03-03T12:07:12.903Z,6.25
2023-03-03T12:13:05.128Z,5.20
2023-03-03T12:18:38.195Z,4.68
2023-03-03T12:24:26.213Z,6.13
2023-03-03T12:30:20.373Z,4.43
2023-03-03T12:35:56.240Z,5.03
2023-03-03T12:41:20.511Z,4.70
2023-03-03T12:47:02.373Z,5.30
2023-03-03T12:52:51.419Z,6.20
2023-03-03T12:58:24.133Z,5.40
2023-03-03T13:03:55.710Z,6.38
2023-03-03T13:09:41.176Z,5.20
2023-03-03T13:15:16.354Z,6.63
2023-03-03T13:20:46.255Z,5.60
2023-03-03T13:26:50.137Z,6.45
2023-03-03T13:32:23.282Z,6.97
2023-03-03T13:37:52.675Z,6.97
2023-03-03T13:43:15.995Z,5.47
2023-03-03T13:48:46.722Z,5.10
2023-03-03T13:54:20.548Z,5.07
2023-03-03T14:00:04.782Z,3.53
2023-03-03T14:05:48.582Z,4.00
2023-03-03T14:11:24.046Z,3.40
2023-03-03T14:16:54.863Z,3.50
2023-03-03T14:22:40.232Z,3.50
2023-03-03T14:28:16.119Z,3.50
2023-03-03T14:33:37.122Z,3.83
2023-03-03T14:38:57.978Z,3.40
2023-03-03T14:44:36.171Z,3.42
2023-03-03T14:50:00.422Z,3.03
2023-03-03T14:55:35.986Z,3.90
2023-03-03T15:01:12.333Z,2.95
2023-03-03T15:06:48.477Z,2.90
2023-03-03T15:12:24.830Z,3.22
2023-03-03T15:18:05.334Z,3.22
2023-03-03T15:23:51.631Z,2.75
2023-03-03T15:29:22.568Z,2.85
2023-03-03T15:35:12.145Z,3.35
2023-03-03T15:40:53.412Z,4.13
2023-03-03T15:46:35.197Z,3.65
2023-03-03T15:52:21.467Z,3.58
2023-03-03T15:58:33.356Z,4.55
2023-03-03T16:04:09.691Z,3.78
2023-03-03T16:09:52.299Z,4.68
2023-03-03T16:15:35.354Z,4.03
2023-03-03T16:21:02.377Z,4.32
2023-03-03T16:26:47.734Z,4.88
2023-03-03T16:32:22.833Z,6.10
2023-03-03T16:38:05.679Z,5.68
2023-03-03T16:43:38.491Z,3.45
2023-03-03T16:49:16.990Z,4.15
2023-03-03T16:54:58.629Z,3.53
2023-03-03T17:00:28.576Z,4.25
2023-03-03T17:05:58.135Z,4.03
2023-03-03T17:11:35.088Z,4.40
2023-03-03T17:17:01.199Z,4.55
2023-03-03T17:22:46.427Z,4.07
2023-03-03T17:28:07.245Z,5.45
2023-03-03T17:33:57.447Z,5.18
2023-03-03T17:39:51.953Z,4.57
2023-03-03T17:45:15.700Z,4.63
2023-03-03T17:50:59.100Z,4.95
2023-03-03T17:56:40.178Z,6.20
2023-03-03T18:02:16.579Z,5.30
2023-03-03T18:08:04.740Z,6.45
2023-03-03T18:13:50.449Z,5.70
2023-03-03T18:19:52.616Z,6.25
2023-03-03T18:25:17.107Z,5.65
2023-03-03T18:30:46.993Z,6.28
2023-03-03T18:36:36.395Z,6.45
2023-03-03T18:42:11.542Z,10.02
2023-03-03T18:47:57.694Z,7.10
2023-03-03T18:53:31.073Z,6.55
2023-03-03T18:58:53.691Z,5.60
2023-03-03T19:04:16.349Z,5.93
2023-03-03T19:09:57.144Z,5.90
2023-03-03T19:21:23.541Z,6.07
2023-03-03T19:27:09.865Z,6.03
2023-03-03T19:32:48.489Z,8.52
2023-03-03T19:38:32.353Z,6.18
2023-03-03T19:44:22.123Z,6.82
2023-03-03T19:50:10.357Z,6.15
2023-03-03T19:55:35.067Z,7.57
2023-03-03T20:00:55.705Z,8.15
2023-03-03T20:06:44.406Z,7.57
2023-03-03T20:12:16.469Z,7.15
2023-03-03T20:17:47.456Z,7.53
2023-03-03T20:23:26.710Z,6.72
2023-03-03T20:29:15.837Z,7.50
2023-03-03T20:35:03.224Z,7.55
2023-03-03T20:40:33.553Z,7.38
2023-03-03T20:46:08.256Z,7.40
2023-03-03T20:52:02.181Z,8.52
2023-03-03T20:57:38.661Z,10.00
2023-03-03T21:03:06.294Z,8.98
2023-03-03T21:08:48.573Z,10.95
2023-03-03T21:14:33.518Z,9.38
2023-03-03T21:19:54.592Z,9.57
2023-03-03T21:25:40.228Z,9.32
2023-03-03T21:31:15.488Z,8.73
2023-03-03T21:36:36.709Z,8.57
2023-03-03T21:42:09.484Z,8.50
2023-03-03T21:47:31.261Z,9.93
2023-03-03T21:52:52.402Z,10.75
2023-03-03T21:58:13.161Z,8.13
2023-03-03T22:03:34.416Z,9.18
2023-03-03T22:08:55.342Z,10.25
2023-03-03T22:14:16.122Z,9.48
2023-03-03T22:19:38.304Z,8.32
2023-03-03T22:24:59.044Z,8.13
2023-03-03T22:30:19.919Z,8.40
2023-03-03T22:35:40.826Z,8.73
2023-03-03T22:41:01.899Z,8.23
2023-03-03T22:46:23.175Z,9.15
2023-03-03T22:51:44.081Z,8.73
2023-03-03T22:57:04.735Z,9.27
2023-03-03T23:02:25.791Z,9.82
2023-03-03T23:07:46.772Z,9.40
2023-03-03T23:13:08.794Z,8.73
2023-03-03T23:18:29.625Z,9.35
2023-03-03T23:23:50.403Z,9.52
2023-03-03T23:29:10.982Z,9.48
2023-03-03T23:34:32.536Z,10.52
2023-03-03T23:39:53.123Z,9.00
2023-03-03T23:45:14.263Z,8.85
2023-03-03T23:50:37.256Z,11.50
2023-03-03T23:55:58.314Z,10.48
